Aigle, Switzerland
Current Conditions -  °F | °C
As of 3:50 PM on Wednesday 26 Nov 2014 (Local Time) from LSMS Reporting Station
Scattered Clouds Scattered Clouds  
Wind Chill: 54°   Ceiling: Unl
Heat Index: 54°   Visibility: 6mi
Dew Point: 45°   Wind: 6mph
Humidity: 72%   Direction: 240°WSW
Pressure: 29.88"   Gusts: NA
Location:  46.32°N, 6.95°E
Report Text: LSMS 261450Z 24005KT 9000 FEW070 SCT120 12/07 Q1012
Loading
Personal Weather Stations






























Interactive Weather Map New forecast layout! Learn more

10-Day Weather Forecast

Advertisements
Track Severe Weather on mobile